sensor_id;sensor_type;location;lat;lon;timestamp;pressure;altitude;pressure_sealevel;temperature;humidity
57900;BME280;60605;53.716;19.940;2023-03-31T00:02:02;98969.01;;;9.74;100.00
57900;BME280;60605;53.716;19.940;2023-03-31T00:07:14;98966.26;;;9.71;100.00
57900;BME280;60605;53.716;19.940;2023-03-31T00:12:17;98976.42;;;9.69;100.00
57900;BME280;60605;53.716;19.940;2023-03-31T00:17:18;98982.23;;;9.67;100.00
57900;BME280;60605;53.716;19.940;2023-03-31T00:22:20;98986.54;;;9.65;100.00
57900;BME280;60605;53.716;19.940;2023-03-31T00:27:22;98987.83;;;9.63;100.00
57900;BME280;60605;53.716;19.940;2023-03-31T00:32:24;98985.95;;;9.61;100.00
57900;BME280;60605;53.716;19.940;2023-03-31T00:37:27;98988.13;;;9.59;100.00
57900;BME280;60605;53.716;19.940;2023-03-31T00:42:29;98990.98;;;9.58;100.00
57900;BME280;60605;53.716;19.940;2023-03-31T00:47:30;98988.87;;;9.57;100.00
57900;BME280;60605;53.716;19.940;2023-03-31T00:52:34;98993.12;;;9.58;100.00
57900;BME280;60605;53.716;19.940;2023-03-31T00:57:39;98993.69;;;9.58;100.00
57900;BME280;60605;53.716;19.940;2023-03-31T01:02:44;98992.16;;;9.57;100.00
57900;BME280;60605;53.716;19.940;2023-03-31T01:07:53;98988.81;;;9.56;100.00
57900;BME280;60605;53.716;19.940;2023-03-31T01:12:56;98988.45;;;9.55;100.00
57900;BME280;60605;53.716;19.940;2023-03-31T01:17:59;98984.83;;;9.53;100.00
57900;BME280;60605;53.716;19.940;2023-03-31T01:44:19;98993.84;;;9.38;100.00
57900;BME280;60605;53.716;19.940;2023-03-31T01:54:48;98992.19;;;9.31;100.00
57900;BME280;60605;53.716;19.940;2023-03-31T02:00:39;98987.99;;;9.27;100.00
57900;BME280;60605;53.716;19.940;2023-03-31T02:05:39;98985.81;;;9.25;100.00
57900;BME280;60605;53.716;19.940;2023-03-31T02:10:44;98990.11;;;9.23;100.00
57900;BME280;60605;53.716;19.940;2023-03-31T02:15:51;98988.66;;;9.21;100.00
57900;BME280;60605;53.716;19.940;2023-03-31T02:20:56;98986.58;;;9.20;100.00
57900;BME280;60605;53.716;19.940;2023-03-31T02:26:15;98981.34;;;9.19;100.00
57900;BME280;60605;53.716;19.940;2023-03-31T02:36:28;98973.73;;;9.17;100.00
57900;BME280;60605;53.716;19.940;2023-03-31T02:41:31;98972.70;;;9.15;100.00
57900;BME280;60605;53.716;19.940;2023-03-31T02:46:33;98976.61;;;9.13;100.00
57900;BME280;60605;53.716;19.940;2023-03-31T02:51:51;98974.48;;;9.12;100.00
57900;BME280;60605;53.716;19.940;2023-03-31T03:12:36;98977.63;;;9.07;100.00
57900;BME280;60605;53.716;19.940;2023-03-31T03:17:46;98978.07;;;9.08;100.00
57900;BME280;60605;53.716;19.940;2023-03-31T03:22:49;98978.44;;;9.10;100.00
57900;BME280;60605;53.716;19.940;2023-03-31T03:27:51;98978.83;;;9.11;100.00
57900;BME280;60605;53.716;19.940;2023-03-31T03:32:56;98978.10;;;9.11;100.00
57900;BME280;60605;53.716;19.940;2023-03-31T03:37:59;98984.23;;;9.12;100.00
57900;BME280;60605;53.716;19.940;2023-03-31T03:43:01;98990.79;;;9.13;100.00
57900;BME280;60605;53.716;19.940;2023-03-31T03:48:03;98988.68;;;9.12;100.00
57900;BME280;60605;53.716;19.940;2023-03-31T03:53:06;98984.48;;;9.12;100.00
57900;BME280;60605;53.716;19.940;2023-03-31T03:58:08;98988.79;;;9.11;100.00
57900;BME280;60605;53.716;19.940;2023-03-31T04:03:11;98980.27;;;9.10;100.00
57900;BME280;60605;53.716;19.940;2023-03-31T04:08:13;98974.83;;;9.09;100.00
57900;BME280;60605;53.716;19.940;2023-03-31T04:13:17;98976.00;;;9.08;100.00
57900;BME280;60605;53.716;19.940;2023-03-31T04:18:19;98973.97;;;9.07;100.00
57900;BME280;60605;53.716;19.940;2023-03-31T04:23:24;98975.80;;;9.06;100.00
57900;BME280;60605;53.716;19.940;2023-03-31T04:28:27;98971.67;;;9.05;100.00
57900;BME280;60605;53.716;19.940;2023-03-31T04:33:35;98968.25;;;9.04;100.00
57900;BME280;60605;53.716;19.940;2023-03-31T04:38:40;98958.07;;;9.03;100.00
57900;BME280;60605;53.716;19.940;2023-03-31T04:43:42;98954.89;;;9.03;100.00
57900;BME280;60605;53.716;19.940;2023-03-31T04:48:44;98949.83;;;9.02;100.00
57900;BME280;60605;53.716;19.940;2023-03-31T04:53:46;98945.27;;;9.03;100.00
57900;BME280;60605;53.716;19.940;2023-03-31T04:58:48;98939.33;;;9.03;100.00
57900;BME280;60605;53.716;19.940;2023-03-31T05:03:49;98939.42;;;9.04;100.00
57900;BME280;60605;53.716;19.940;2023-03-31T05:08:52;98939.11;;;9.05;100.00
57900;BME280;60605;53.716;19.940;2023-03-31T05:13:54;98940.79;;;9.06;100.00
57900;BME280;60605;53.716;19.940;2023-03-31T05:18:56;98937.27;;;9.07;100.00
57900;BME280;60605;53.716;19.940;2023-03-31T05:23:58;98930.05;;;9.11;100.00
57900;BME280;60605;53.716;19.940;2023-03-31T05:29:00;98926.43;;;9.18;100.00
57900;BME280;60605;53.716;19.940;2023-03-31T05:34:02;98926.35;;;9.29;100.00
57900;BME280;60605;53.716;19.940;2023-03-31T05:39:04;98923.79;;;9.41;100.00
57900;BME280;60605;53.716;19.940;2023-03-31T05:44:06;98919.02;;;9.53;100.00
57900;BME280;60605;53.716;19.940;2023-03-31T05:49:08;98915.04;;;9.62;100.00
57900;BME280;60605;53.716;19.940;2023-03-31T05:54:12;98907.21;;;9.68;100.00
57900;BME280;60605;53.716;19.940;2023-03-31T05:59:14;98907.61;;;9.75;100.00
57900;BME280;60605;53.716;19.940;2023-03-31T06:04:16;98903.74;;;9.85;100.00
57900;BME280;60605;53.716;19.940;2023-03-31T06:09:18;98907.08;;;9.95;100.00
57900;BME280;60605;53.716;19.940;2023-03-31T06:14:21;98911.27;;;10.03;100.00
57900;BME280;60605;53.716;19.940;2023-03-31T06:19:23;98914.10;;;10.10;100.00
57900;BME280;60605;53.716;19.940;2023-03-31T06:24:25;98917.80;;;10.12;100.00
57900;BME280;60605;53.716;19.940;2023-03-31T06:29:27;98916.45;;;10.09;100.00
57900;BME280;60605;53.716;19.940;2023-03-31T06:34:29;98917.16;;;10.06;100.00
57900;BME280;60605;53.716;19.940;2023-03-31T06:39:31;98923.35;;;10.11;100.00
57900;BME280;60605;53.716;19.940;2023-03-31T06:44:33;98922.50;;;10.19;100.00
57900;BME280;60605;53.716;19.940;2023-03-31T06:49:35;98923.52;;;10.28;100.00
57900;BME280;60605;53.716;19.940;2023-03-31T06:54:36;98922.82;;;10.40;100.00
57900;BME280;60605;53.716;19.940;2023-03-31T06:59:39;98921.88;;;10.43;100.00
57900;BME280;60605;53.716;19.940;2023-03-31T07:04:41;98924.27;;;10.43;100.00
57900;BME280;60605;53.716;19.940;2023-03-31T07:09:43;98926.90;;;10.37;100.00
57900;BME280;60605;53.716;19.940;2023-03-31T07:14:45;98925.52;;;10.35;100.00
57900;BME280;60605;53.716;19.940;2023-03-31T07:19:47;98924.27;;;10.37;100.00
57900;BME280;60605;53.716;19.940;2023-03-31T07:24:49;98920.15;;;10.46;100.00
57900;BME280;60605;53.716;19.940;2023-03-31T07:29:51;98925.66;;;10.57;100.00
57900;BME280;60605;53.716;19.940;2023-03-31T07:34:53;98919.84;;;10.72;100.00
57900;BME280;60605;53.716;19.940;2023-03-31T07:39:54;98920.77;;;10.84;100.00
57900;BME280;60605;53.716;19.940;2023-03-31T07:44:56;98924.09;;;10.88;100.00
57900;BME280;60605;53.716;19.940;2023-03-31T07:49:58;98918.83;;;10.90;100.00
57900;BME280;60605;53.716;19.940;2023-03-31T07:55:00;98912.46;;;11.05;100.00
57900;BME280;60605;53.716;19.940;2023-03-31T08:00:06;98900.73;;;11.19;100.00
57900;BME280;60605;53.716;19.940;2023-03-31T08:05:12;98891.64;;;11.35;100.00
57900;BME280;60605;53.716;19.940;2023-03-31T08:10:21;98887.95;;;11.71;100.00
57900;BME280;60605;53.716;19.940;2023-03-31T08:15:23;98889.02;;;12.10;100.00
57900;BME280;60605;53.716;19.940;2023-03-31T08:20:26;98882.27;;;12.48;100.00
57900;BME280;60605;53.716;19.940;2023-03-31T08:25:28;98883.99;;;12.76;100.00
57900;BME280;60605;53.716;19.940;2023-03-31T08:30:29;98882.47;;;12.61;100.00
57900;BME280;60605;53.716;19.940;2023-03-31T08:35:34;98881.73;;;12.40;100.00
57900;BME280;60605;53.716;19.940;2023-03-31T08:40:38;98879.19;;;12.28;100.00
57900;BME280;60605;53.716;19.940;2023-03-31T08:45:45;98876.05;;;12.35;100.00
57900;BME280;60605;53.716;19.940;2023-03-31T08:50:52;98876.14;;;12.60;100.00
57900;BME280;60605;53.716;19.940;2023-03-31T08:55:57;98876.23;;;12.60;100.00
57900;BME280;60605;53.716;19.940;2023-03-31T09:06:33;98871.90;;;12.30;100.00
57900;BME280;60605;53.716;19.940;2023-03-31T09:12:02;98869.01;;;12.25;100.00
57900;BME280;60605;53.716;19.940;2023-03-31T09:17:19;98864.64;;;12.20;100.00
57900;BME280;60605;53.716;19.940;2023-03-31T09:22:30;98855.47;;;12.35;100.00
57900;BME280;60605;53.716;19.940;2023-03-31T09:27:34;98854.34;;;12.63;100.00
57900;BME280;60605;53.716;19.940;2023-03-31T09:32:40;98856.86;;;12.86;100.00
57900;BME280;60605;53.716;19.940;2023-03-31T09:37:42;98858.11;;;12.76;100.00
57900;BME280;60605;53.716;19.940;2023-03-31T09:42:46;98855.95;;;12.63;100.00
57900;BME280;60605;53.716;19.940;2023-03-31T09:47:58;98852.41;;;12.52;100.00
57900;BME280;60605;53.716;19.940;2023-03-31T09:53:04;98848.63;;;12.39;100.00
57900;BME280;60605;53.716;19.940;2023-03-31T09:58:10;98849.11;;;12.37;100.00
57900;BME280;60605;53.716;19.940;2023-03-31T10:03:13;98848.77;;;12.45;100.00
57900;BME280;60605;53.716;19.940;2023-03-31T10:08:21;98844.91;;;12.56;100.00
57900;BME280;60605;53.716;19.940;2023-03-31T10:13:26;98846.16;;;12.65;100.00
57900;BME280;60605;53.716;19.940;2023-03-31T10:18:41;98840.73;;;12.71;100.00
57900;BME280;60605;53.716;19.940;2023-03-31T10:23:48;98846.16;;;12.66;100.00
57900;BME280;60605;53.716;19.940;2023-03-31T10:28:51;98839.42;;;12.50;100.00
57900;BME280;60605;53.716;19.940;2023-03-31T10:33:58;98836.09;;;12.27;100.00
57900;BME280;60605;53.716;19.940;2023-03-31T10:39:06;98833.84;;;12.12;100.00
57900;BME280;60605;53.716;19.940;2023-03-31T10:44:34;98835.91;;;12.11;100.00
57900;BME280;60605;53.716;19.940;2023-03-31T10:49:39;98836.90;;;12.24;100.00
57900;BME280;60605;53.716;19.940;2023-03-31T10:54:51;98828.42;;;12.48;100.00
57900;BME280;60605;53.716;19.940;2023-03-31T11:00:20;98824.42;;;12.70;100.00
57900;BME280;60605;53.716;19.940;2023-03-31T11:16:06;98820.04;;;12.92;100.00
57900;BME280;60605;53.716;19.940;2023-03-31T11:26:54;98819.38;;;13.16;100.00
57900;BME280;60605;53.716;19.940;2023-03-31T11:43:05;98808.93;;;13.77;98.98
57900;BME280;60605;53.716;19.940;2023-03-31T11:48:25;98803.20;;;14.13;98.83
57900;BME280;60605;53.716;19.940;2023-03-31T11:53:36;98798.48;;;14.39;97.20
57900;BME280;60605;53.716;19.940;2023-03-31T11:58:59;98788.02;;;14.74;96.36
57900;BME280;60605;53.716;19.940;2023-03-31T12:04:08;98788.16;;;15.00;94.33
57900;BME280;60605;53.716;19.940;2023-03-31T12:09:26;98783.95;;;15.03;93.41
57900;BME280;60605;53.716;19.940;2023-03-31T12:14:54;98778.92;;;14.96;92.23
57900;BME280;60605;53.716;19.940;2023-03-31T12:20:11;98766.40;;;14.64;91.33
57900;BME280;60605;53.716;19.940;2023-03-31T12:25:19;98766.41;;;14.30;91.74
57900;BME280;60605;53.716;19.940;2023-03-31T12:30:31;98762.73;;;14.11;93.05
57900;BME280;60605;53.716;19.940;2023-03-31T12:36:32;98760.34;;;14.22;93.86
57900;BME280;60605;53.716;19.940;2023-03-31T12:41:39;98752.65;;;14.41;93.78
57900;BME280;60605;53.716;19.940;2023-03-31T13:07:33;98714.52;;;15.60;90.12
57900;BME280;60605;53.716;19.940;2023-03-31T13:12:34;98705.13;;;15.84;88.16
57900;BME280;60605;53.716;19.940;2023-03-31T13:17:36;98694.63;;;16.08;87.24
57900;BME280;60605;53.716;19.940;2023-03-31T13:22:42;98688.42;;;16.36;86.67
57900;BME280;60605;53.716;19.940;2023-03-31T13:27:49;98680.20;;;16.36;85.22
57900;BME280;60605;53.716;19.940;2023-03-31T13:33:27;98674.79;;;16.13;83.36
57900;BME280;60605;53.716;19.940;2023-03-31T13:38:58;98670.31;;;15.95;84.24
57900;BME280;60605;53.716;19.940;2023-03-31T13:49:54;98667.54;;;15.36;83.31
57900;BME280;60605;53.716;19.940;2023-03-31T14:11:46;98651.77;;;15.38;84.55
57900;BME280;60605;53.716;19.940;2023-03-31T14:16:52;98645.64;;;15.34;83.12
57900;BME280;60605;53.716;19.940;2023-03-31T14:32:41;98625.60;;;15.10;83.90
57900;BME280;60605;53.716;19.940;2023-03-31T14:37:46;98618.73;;;15.02;83.69
57900;BME280;60605;53.716;19.940;2023-03-31T14:42:49;98610.39;;;14.89;83.78
57900;BME280;60605;53.716;19.940;2023-03-31T14:48:09;98607.01;;;14.76;83.85
57900;BME280;60605;53.716;19.940;2023-03-31T14:53:15;98596.04;;;14.53;84.07
57900;BME280;60605;53.716;19.940;2023-03-31T14:58:28;98591.24;;;14.30;84.74
57900;BME280;60605;53.716;19.940;2023-03-31T15:03:34;98587.75;;;14.17;85.84
57900;BME280;60605;53.716;19.940;2023-03-31T15:08:38;98589.52;;;14.10;86.88
57900;BME280;60605;53.716;19.940;2023-03-31T15:13:46;98593.23;;;14.06;87.11
57900;BME280;60605;53.716;19.940;2023-03-31T15:19:19;98599.93;;;14.02;87.56
57900;BME280;60605;53.716;19.940;2023-03-31T15:24:22;98599.28;;;13.99;87.92
57900;BME280;60605;53.716;19.940;2023-03-31T15:29:25;98589.23;;;13.89;88.26
57900;BME280;60605;53.716;19.940;2023-03-31T15:34:33;98586.64;;;13.77;88.61
57900;BME280;60605;53.716;19.940;2023-03-31T15:39:38;98585.55;;;13.65;89.04
57900;BME280;60605;53.716;19.940;2023-03-31T15:44:50;98587.66;;;13.56;89.67
57900;BME280;60605;53.716;19.940;2023-03-31T15:50:10;98590.73;;;13.43;89.93
57900;BME280;60605;53.716;19.940;2023-03-31T15:55:29;98592.67;;;13.26;90.30
57900;BME280;60605;53.716;19.940;2023-03-31T16:11:00;98582.58;;;12.65;90.55
57900;BME280;60605;53.716;19.940;2023-03-31T16:16:08;98578.40;;;12.48;91.05
57900;BME280;60605;53.716;19.940;2023-03-31T16:21:11;98578.05;;;12.36;91.56
57900;BME280;60605;53.716;19.940;2023-03-31T16:26:23;98571.34;;;12.25;92.06
57900;BME280;60605;53.716;19.940;2023-03-31T16:31:37;98560.72;;;12.14;92.51
57900;BME280;60605;53.716;19.940;2023-03-31T16:36:40;98558.48;;;12.05;93.13
57900;BME280;60605;53.716;19.940;2023-03-31T16:41:43;98551.23;;;11.96;93.70
57900;BME280;60605;53.716;19.940;2023-03-31T16:46:45;98547.20;;;11.87;94.54
57900;BME280;60605;53.716;19.940;2023-03-31T16:51:48;98548.15;;;11.79;95.46
57900;BME280;60605;53.716;19.940;2023-03-31T16:56:50;98546.08;;;11.71;96.40
57900;BME280;60605;53.716;19.940;2023-03-31T17:01:54;98545.11;;;11.62;97.16
57900;BME280;60605;53.716;19.940;2023-03-31T17:06:56;98546.85;;;11.54;97.70
57900;BME280;60605;53.716;19.940;2023-03-31T17:11:58;98541.61;;;11.45;97.95
57900;BME280;60605;53.716;19.940;2023-03-31T17:17:00;98539.10;;;11.37;97.90
57900;BME280;60605;53.716;19.940;2023-03-31T17:22:02;98534.89;;;11.28;97.89
57900;BME280;60605;53.716;19.940;2023-03-31T17:27:04;98532.09;;;11.18;97.83
57900;BME280;60605;53.716;19.940;2023-03-31T17:32:06;98534.04;;;11.05;97.78
57900;BME280;60605;53.716;19.940;2023-03-31T17:37:08;98535.56;;;10.91;97.88
57900;BME280;60605;53.716;19.940;2023-03-31T17:42:11;98536.29;;;10.74;97.90
57900;BME280;60605;53.716;19.940;2023-03-31T17:47:13;98532.41;;;10.57;98.18
57900;BME280;60605;53.716;19.940;2023-03-31T17:52:16;98529.67;;;10.39;98.43
57900;BME280;60605;53.716;19.940;2023-03-31T17:57:19;98533.85;;;10.22;98.86
57900;BME280;60605;53.716;19.940;2023-03-31T18:02:23;98535.42;;;10.07;99.62
57900;BME280;60605;53.716;19.940;2023-03-31T18:07:26;98535.13;;;9.95;99.97
57900;BME280;60605;53.716;19.940;2023-03-31T18:12:28;98532.80;;;9.84;100.00
57900;BME280;60605;53.716;19.940;2023-03-31T18:17:30;98531.13;;;9.75;100.00
57900;BME280;60605;53.716;19.940;2023-03-31T18:22:33;98531.04;;;9.66;100.00
57900;BME280;60605;53.716;19.940;2023-03-31T18:27:34;98531.70;;;9.55;100.00
57900;BME280;60605;53.716;19.940;2023-03-31T18:32:38;98524.52;;;9.42;100.00
57900;BME280;60605;53.716;19.940;2023-03-31T18:37:40;98524.69;;;9.30;100.00
57900;BME280;60605;53.716;19.940;2023-03-31T18:42:43;98521.34;;;9.15;100.00
57900;BME280;60605;53.716;19.940;2023-03-31T18:47:47;98514.53;;;9.01;100.00
57900;BME280;60605;53.716;19.940;2023-03-31T18:52:49;98525.44;;;8.90;100.00
57900;BME280;60605;53.716;19.940;2023-03-31T18:57:55;98523.72;;;8.81;100.00
57900;BME280;60605;53.716;19.940;2023-03-31T19:02:58;98528.25;;;8.74;100.00
57900;BME280;60605;53.716;19.940;2023-03-31T19:08:01;98526.52;;;8.70;100.00
57900;BME280;60605;53.716;19.940;2023-03-31T19:13:03;98529.34;;;8.67;100.00
57900;BME280;60605;53.716;19.940;2023-03-31T19:18:11;98540.25;;;8.63;100.00
57900;BME280;60605;53.716;19.940;2023-03-31T19:23:15;98534.33;;;8.60;100.00
57900;BME280;60605;53.716;19.940;2023-03-31T19:28:21;98527.14;;;8.60;100.00
57900;BME280;60605;53.716;19.940;2023-03-31T19:33:24;98524.98;;;8.62;100.00
57900;BME280;60605;53.716;19.940;2023-03-31T19:38:27;98521.14;;;8.62;100.00
57900;BME280;60605;53.716;19.940;2023-03-31T19:43:32;98510.55;;;8.63;100.00
57900;BME280;60605;53.716;19.940;2023-03-31T19:48:35;98501.04;;;8.64;100.00
57900;BME280;60605;53.716;19.940;2023-03-31T19:53:38;98496.64;;;8.72;100.00
57900;BME280;60605;53.716;19.940;2023-03-31T19:58:41;98489.08;;;8.80;100.00
57900;BME280;60605;53.716;19.940;2023-03-31T20:03:44;98484.13;;;8.86;100.00
57900;BME280;60605;53.716;19.940;2023-03-31T20:08:54;98475.71;;;8.89;100.00
57900;BME280;60605;53.716;19.940;2023-03-31T20:13:57;98471.30;;;8.90;100.00
57900;BME280;60605;53.716;19.940;2023-03-31T20:19:03;98472.18;;;8.93;100.00
57900;BME280;60605;53.716;19.940;2023-03-31T20:24:06;98471.59;;;8.94;100.00
57900;BME280;60605;53.716;19.940;2023-03-31T20:29:09;98469.08;;;8.93;100.00
57900;BME280;60605;53.716;19.940;2023-03-31T20:34:13;98465.57;;;8.92;100.00
57900;BME280;60605;53.716;19.940;2023-03-31T20:39:16;98462.80;;;8.88;100.00
57900;BME280;60605;53.716;19.940;2023-03-31T20:44:19;98455.48;;;8.81;100.00
57900;BME280;60605;53.716;19.940;2023-03-31T20:49:21;98458.39;;;8.73;100.00
57900;BME280;60605;53.716;19.940;2023-03-31T20:54:24;98456.10;;;8.66;100.00
57900;BME280;60605;53.716;19.940;2023-03-31T20:59:26;98457.60;;;8.58;100.00
57900;BME280;60605;53.716;19.940;2023-03-31T21:04:29;98458.44;;;8.51;100.00
57900;BME280;60605;53.716;19.940;2023-03-31T21:09:31;98456.96;;;8.43;100.00
57900;BME280;60605;53.716;19.940;2023-03-31T21:14:33;98454.79;;;8.32;100.00
57900;BME280;60605;53.716;19.940;2023-03-31T21:19:36;98450.77;;;8.21;100.00
57900;BME280;60605;53.716;19.940;2023-03-31T21:24:38;98445.51;;;8.13;100.00
57900;BME280;60605;53.716;19.940;2023-03-31T21:29:40;98444.56;;;8.07;100.00
57900;BME280;60605;53.716;19.940;2023-03-31T21:34:42;98449.39;;;8.01;100.00
57900;BME280;60605;53.716;19.940;2023-03-31T21:39:44;98445.56;;;7.93;100.00
57900;BME280;60605;53.716;19.940;2023-03-31T21:44:47;98448.84;;;7.88;100.00
57900;BME280;60605;53.716;19.940;2023-03-31T21:49:50;98457.00;;;7.85;100.00
57900;BME280;60605;53.716;19.940;2023-03-31T21:54:53;98457.57;;;7.85;100.00
57900;BME280;60605;53.716;19.940;2023-03-31T21:59:55;98460.63;;;7.89;100.00
57900;BME280;60605;53.716;19.940;2023-03-31T22:04:57;98457.61;;;7.95;100.00
57900;BME280;60605;53.716;19.940;2023-03-31T22:09:59;98460.17;;;8.03;100.00
57900;BME280;60605;53.716;19.940;2023-03-31T22:15:02;98454.07;;;8.11;100.00
57900;BME280;60605;53.716;19.940;2023-03-31T22:20:07;98453.34;;;8.17;100.00
57900;BME280;60605;53.716;19.940;2023-03-31T22:25:10;98453.10;;;8.22;100.00
57900;BME280;60605;53.716;19.940;2023-03-31T22:30:13;98446.56;;;8.26;100.00
57900;BME280;60605;53.716;19.940;2023-03-31T22:35:15;98441.48;;;8.28;100.00
57900;BME280;60605;53.716;19.940;2023-03-31T22:40:18;98436.48;;;8.30;100.00
57900;BME280;60605;53.716;19.940;2023-03-31T22:45:20;98440.44;;;8.33;100.00
57900;BME280;60605;53.716;19.940;2023-03-31T22:50:23;98434.30;;;8.35;100.00
57900;BME280;60605;53.716;19.940;2023-03-31T22:55:25;98430.30;;;8.36;100.00
57900;BME280;60605;53.716;19.940;2023-03-31T23:00:27;98430.96;;;8.36;100.00
57900;BME280;60605;53.716;19.940;2023-03-31T23:05:29;98431.04;;;8.35;100.00
57900;BME280;60605;53.716;19.940;2023-03-31T23:10:31;98432.19;;;8.33;100.00
57900;BME280;60605;53.716;19.940;2023-03-31T23:15:34;98433.15;;;8.31;100.00
57900;BME280;60605;53.716;19.940;2023-03-31T23:20:38;98431.49;;;8.30;100.00
57900;BME280;60605;53.716;19.940;2023-03-31T23:25:40;98427.52;;;8.29;100.00
57900;BME280;60605;53.716;19.940;2023-03-31T23:30:50;98425.73;;;8.28;100.00
57900;BME280;60605;53.716;19.940;2023-03-31T23:35:58;98423.86;;;8.26;100.00
57900;BME280;60605;53.716;19.940;2023-03-31T23:41:01;98416.42;;;8.24;100.00
57900;BME280;60605;53.716;19.940;2023-03-31T23:46:05;98412.41;;;8.22;100.00
57900;BME280;60605;53.716;19.940;2023-03-31T23:51:08;98411.52;;;8.20;100.00
57900;BME280;60605;53.716;19.940;2023-03-31T23:56:11;98408.45;;;8.18;100.00
